Time;durP1;ratioP1;P1;durP2;ratioP2;P2;SDS_P1;SDS_P2;PMS_P1;PMS_P2;Temp;Humidity;BMP_temperature;BMP_pressure;BME280_temperature;BME280_humidity;BME280_pressure;Samples;Min_cycle;Max_cycle;Signal;HPM_P1;HPM_P2
2023/01/17 00:00:46;;;;;;;3.40;1.87;;;;;;;;;;5020048;28;20210;-72
2023/01/17 00:03:12;;;;;;;4.97;2.10;;;;;;;;;;5015000;28;20210;-72
2023/01/17 00:11:09;;;;;;;5.03;2.40;;;;;;;;;;5029694;28;20207;-72
2023/01/17 00:13:35;;;;;;;6.40;2.50;;;;;;;;;;5026994;28;20669;-73
2023/01/17 00:16:01;;;;;;;4.13;2.00;;;;;;;;;;5029261;28;20189;-73
2023/01/17 00:18:27;;;;;;;3.27;1.90;;;;;;;;;;5028783;28;20178;-73
2023/01/17 01:36:01;;;;;;;6.00;2.57;;;;;;;;;;5022170;28;20206;-73
2023/01/17 01:38:27;;;;;;;5.47;2.90;;;;;;;;;;5018264;28;20903;-72
2023/01/17 01:40:54;;;;;;;3.93;2.60;;;;;;;;;;5023937;28;20206;-72
2023/01/17 01:43:38;;;;;;;4.03;2.43;;;;;;;;;;5021533;28;20250;-72
2023/01/17 01:46:05;;;;;;;6.03;2.77;;;;;;;;;;5023942;28;20233;-72
2023/01/17 01:48:31;;;;;;;4.60;2.53;;;;;;;;;;4998743;28;20591;-72
2023/01/17 01:50:58;;;;;;;4.17;2.47;;;;;;;;;;5022233;28;20179;-73
2023/01/17 01:53:24;;;;;;;3.90;2.23;;;;;;;;;;5021102;28;20753;-72
2023/01/17 01:55:51;;;;;;;9.07;4.80;;;;;;;;;;5016614;28;20178;-72
2023/01/17 01:58:24;;;;;;;9.00;3.97;;;;;;;;;;5024387;28;20178;-73
2023/01/17 02:00:51;;;;;;;5.60;2.70;;;;;;;;;;5018428;28;20198;-75
2023/01/17 02:03:20;;;;;;;3.77;2.37;;;;;;;;;;5024284;28;20697;-72
2023/01/17 02:05:46;;;;;;;3.43;2.50;;;;;;;;;;5028085;28;20186;-73
2023/01/17 02:08:14;;;;;;;5.13;3.50;;;;;;;;;;5027403;28;20758;-72
2023/01/17 02:10:41;;;;;;;11.10;6.00;;;;;;;;;;5022638;28;20201;-72
2023/01/17 02:13:07;;;;;;;6.77;3.47;;;;;;;;;;5009787;28;20462;-72
2023/01/17 02:15:41;;;;;;;5.07;2.83;;;;;;;;;;5012800;28;20178;-72
2023/01/17 02:18:13;;;;;;;4.03;2.37;;;;;;;;;;5008291;28;20235;-72
2023/01/17 02:20:51;;;;;;;5.10;2.60;;;;;;;;;;5021350;28;20211;-72
2023/01/17 02:23:36;;;;;;;4.93;2.63;;;;;;;;;;5013867;28;20799;-73
2023/01/17 02:26:14;;;;;;;2.80;2.20;;;;;;;;;;5015066;28;20206;-72
2023/01/17 02:28:55;;;;;;;4.93;2.63;;;;;;;;;;5022869;28;20181;-73
2023/01/17 02:31:26;;;;;;;5.67;2.77;;;;;;;;;;5016441;28;20187;-73
2023/01/17 02:33:58;;;;;;;6.10;3.20;;;;;;;;;;5021799;28;20592;-73
2023/01/17 02:36:24;;;;;;;5.77;3.20;;;;;;;;;;5021392;28;20265;-72
2023/01/17 02:39:05;;;;;;;5.47;2.90;;;;;;;;;;5019250;28;20738;-72
2023/01/17 02:41:34;;;;;;;7.40;4.10;;;;;;;;;;5019368;28;20225;-72
2023/01/17 02:44:01;;;;;;;5.00;3.20;;;;;;;;;;5016699;28;20249;-72
2023/01/17 02:46:27;;;;;;;5.40;3.33;;;;;;;;;;5022792;28;20233;-73
2023/01/17 02:48:54;;;;;;;6.27;2.90;;;;;;;;;;5022500;28;20307;-72
2023/01/17 02:51:23;;;;;;;5.70;2.90;;;;;;;;;;5022174;28;20179;-73
2023/01/17 02:53:55;;;;;;;7.53;3.90;;;;;;;;;;5025220;28;20611;-73
2023/01/17 02:56:39;;;;;;;8.37;3.30;;;;;;;;;;5012050;28;20182;-73
2023/01/17 02:59:05;;;;;;;4.93;2.80;;;;;;;;;;5018845;28;20677;-72
2023/01/17 03:01:32;;;;;;;4.80;2.73;;;;;;;;;;5018318;28;20178;-73
2023/01/17 03:04:02;;;;;;;5.20;2.70;;;;;;;;;;5017635;28;20203;-72
2023/01/17 03:06:28;;;;;;;4.47;2.70;;;;;;;;;;5020629;28;20178;-72
2023/01/17 03:08:54;;;;;;;4.63;2.90;;;;;;;;;;5020605;28;20182;-72
2023/01/17 03:11:20;;;;;;;10.83;4.60;;;;;;;;;;5005203;28;20269;-72
2023/01/17 03:13:47;;;;;;;7.93;3.83;;;;;;;;;;5024154;28;20226;-72
2023/01/17 03:16:20;;;;;;;5.57;2.93;;;;;;;;;;5022845;28;20179;-72
2023/01/17 03:18:46;;;;;;;5.37;3.00;;;;;;;;;;5021820;28;20950;-72
2023/01/17 03:21:13;;;;;;;21.47;6.47;;;;;;;;;;5019390;28;20215;-73
2023/01/17 03:23:39;;;;;;;7.27;4.10;;;;;;;;;;5023179;28;20194;-72
2023/01/17 03:26:05;;;;;;;7.97;3.70;;;;;;;;;;5021483;28;20239;-72
2023/01/17 03:28:31;;;;;;;10.97;4.20;;;;;;;;;;5022605;28;20174;-72
2023/01/17 03:30:57;;;;;;;6.33;3.70;;;;;;;;;;5001938;28;20187;-72
2023/01/17 03:33:24;;;;;;;7.10;3.60;;;;;;;;;;5018563;28;20199;-72
2023/01/17 03:35:50;;;;;;;8.43;3.67;;;;;;;;;;5024327;28;20190;-72
2023/01/17 03:38:16;;;;;;;8.13;3.70;;;;;;;;;;5004786;28;20190;-72
2023/01/17 03:40:42;;;;;;;7.53;4.27;;;;;;;;;;5024426;28;20218;-72
2023/01/17 03:43:09;;;;;;;6.07;3.50;;;;;;;;;;5020630;28;20228;-72
2023/01/17 03:45:35;;;;;;;4.63;3.30;;;;;;;;;;5023059;28;20186;-72
2023/01/17 03:48:01;;;;;;;5.23;3.17;;;;;;;;;;5023674;28;20613;-72
2023/01/17 03:50:27;;;;;;;4.67;3.10;;;;;;;;;;5019666;28;20278;-72
2023/01/17 03:52:53;;;;;;;5.80;3.60;;;;;;;;;;5023591;28;20217;-72
2023/01/17 03:55:19;;;;;;;5.57;3.37;;;;;;;;;;5018162;28;20187;-72
2023/01/17 03:57:45;;;;;;;6.03;3.77;;;;;;;;;;5016519;28;20182;-72
2023/01/17 04:00:12;;;;;;;5.83;3.40;;;;;;;;;;5011692;28;20230;-72
2023/01/17 04:02:38;;;;;;;4.93;3.27;;;;;;;;;;5022332;28;20206;-72
2023/01/17 04:05:04;;;;;;;7.23;3.57;;;;;;;;;;5018366;28;20182;-72
2023/01/17 04:07:30;;;;;;;4.60;3.30;;;;;;;;;;5012521;28;20179;-72
2023/01/17 04:09:56;;;;;;;5.10;3.57;;;;;;;;;;5015328;28;20245;-72
2023/01/17 04:12:23;;;;;;;7.07;3.63;;;;;;;;;;5026080;28;20280;-72
2023/01/17 04:14:49;;;;;;;5.33;3.30;;;;;;;;;;5024282;28;20178;-72
2023/01/17 04:17:16;;;;;;;5.23;3.50;;;;;;;;;;5025844;28;20614;-72
2023/01/17 04:19:42;;;;;;;4.00;3.10;;;;;;;;;;5025105;28;20309;-72
2023/01/17 04:22:08;;;;;;;4.03;3.10;;;;;;;;;;5017418;28;20203;-72
2023/01/17 04:24:35;;;;;;;5.27;3.33;;;;;;;;;;5020559;28;20183;-72
2023/01/17 04:27:01;;;;;;;5.70;4.30;;;;;;;;;;5018511;28;20194;-72
2023/01/17 04:29:27;;;;;;;8.77;4.63;;;;;;;;;;5017552;28;20178;-72
2023/01/17 04:31:57;;;;;;;6.33;4.00;;;;;;;;;;5019326;28;20179;-72
2023/01/17 04:34:23;;;;;;;11.10;5.13;;;;;;;;;;5022509;28;20182;-72
2023/01/17 04:36:49;;;;;;;7.03;4.17;;;;;;;;;;5021541;28;20190;-72
2023/01/17 04:39:15;;;;;;;6.90;4.10;;;;;;;;;;5024869;28;20236;-72
2023/01/17 04:41:42;;;;;;;9.80;5.03;;;;;;;;;;5025973;28;20178;-72
2023/01/17 04:44:08;;;;;;;6.93;4.43;;;;;;;;;;5013636;28;20586;-72
2023/01/17 04:46:35;;;;;;;8.07;5.10;;;;;;;;;;5019850;28;20282;-72
2023/01/17 04:49:01;;;;;;;9.50;4.80;;;;;;;;;;5020670;28;20186;-72
2023/01/17 04:51:27;;;;;;;6.03;4.20;;;;;;;;;;5017506;28;20328;-72
2023/01/17 04:53:53;;;;;;;6.93;4.60;;;;;;;;;;5022684;28;20297;-72
2023/01/17 04:56:19;;;;;;;10.53;5.23;;;;;;;;;;5021910;28;20183;-72
2023/01/17 04:58:45;;;;;;;10.77;5.23;;;;;;;;;;5020591;28;20179;-72
2023/01/17 05:01:12;;;;;;;10.07;4.97;;;;;;;;;;5019809;28;20262;-72
2023/01/17 05:03:38;;;;;;;8.77;5.20;;;;;;;;;;5027808;28;20243;-72
2023/01/17 05:06:04;;;;;;;6.40;4.57;;;;;;;;;;5014022;28;20187;-72
2023/01/17 05:08:31;;;;;;;6.57;4.33;;;;;;;;;;5007911;28;20277;-72
2023/01/17 05:10:57;;;;;;;5.93;4.07;;;;;;;;;;5019462;28;20224;-74
2023/01/17 05:13:23;;;;;;;6.13;3.87;;;;;;;;;;5023823;28;20791;-73
2023/01/17 05:15:49;;;;;;;4.30;3.40;;;;;;;;;;5013185;28;20194;-73
2023/01/17 05:18:16;;;;;;;4.80;3.50;;;;;;;;;;5013746;28;20591;-73
2023/01/17 05:20:43;;;;;;;5.20;3.43;;;;;;;;;;5024630;28;20249;-73
2023/01/17 05:23:09;;;;;;;4.50;3.47;;;;;;;;;;5011216;28;20199;-72
2023/01/17 05:25:35;;;;;;;5.83;3.60;;;;;;;;;;5025342;28;20184;-73
2023/01/17 05:28:02;;;;;;;6.50;4.07;;;;;;;;;;5018348;28;20210;-73
2023/01/17 05:30:29;;;;;;;6.03;3.40;;;;;;;;;;5021485;28;20753;-73
2023/01/17 05:32:56;;;;;;;7.80;4.00;;;;;;;;;;5019283;28;20285;-73
2023/01/17 05:35:24;;;;;;;6.77;4.30;;;;;;;;;;5027539;28;20240;-72
2023/01/17 05:37:50;;;;;;;9.50;4.63;;;;;;;;;;5027456;28;20214;-73
2023/01/17 05:40:17;;;;;;;9.07;4.60;;;;;;;;;;5017534;28;20211;-73
2023/01/17 05:42:46;;;;;;;12.53;5.90;;;;;;;;;;5013051;28;20198;-72
2023/01/17 05:45:15;;;;;;;11.20;6.03;;;;;;;;;;5017554;28;20186;-72
2023/01/17 05:47:45;;;;;;;11.73;6.00;;;;;;;;;;5022795;28;20421;-72
2023/01/17 05:50:12;;;;;;;12.27;6.57;;;;;;;;;;5019261;28;20266;-72
2023/01/17 05:52:39;;;;;;;7.13;4.13;;;;;;;;;;5021757;28;20310;-72
2023/01/17 05:55:06;;;;;;;6.63;3.80;;;;;;;;;;5024848;28;20186;-72
2023/01/17 05:57:32;;;;;;;6.13;3.87;;;;;;;;;;5021895;28;20217;-72
2023/01/17 05:59:59;;;;;;;7.17;3.73;;;;;;;;;;5020727;28;20203;-72
2023/01/17 06:02:25;;;;;;;6.30;3.70;;;;;;;;;;5021548;28;20663;-72
2023/01/17 06:04:51;;;;;;;10.20;5.43;;;;;;;;;;5019753;28;20174;-72
2023/01/17 06:07:17;;;;;;;14.60;6.30;;;;;;;;;;5016612;28;20182;-73
2023/01/17 06:09:43;;;;;;;8.87;4.80;;;;;;;;;;5019806;28;20178;-72
2023/01/17 06:12:10;;;;;;;7.80;4.70;;;;;;;;;;5015850;28;20241;-72
2023/01/17 06:14:36;;;;;;;5.37;3.90;;;;;;;;;;5018849;28;20224;-73
2023/01/17 06:17:02;;;;;;;10.00;5.83;;;;;;;;;;5022799;28;20186;-73
2023/01/17 06:19:28;;;;;;;8.10;5.37;;;;;;;;;;5014779;28;20219;-73
2023/01/17 06:21:54;;;;;;;7.43;4.23;;;;;;;;;;5021849;28;20818;-72
2023/01/17 06:24:21;;;;;;;4.87;3.60;;;;;;;;;;5023484;28;20190;-72
2023/01/17 06:26:47;;;;;;;7.80;4.30;;;;;;;;;;5024865;28;20185;-72
2023/01/17 06:29:13;;;;;;;6.67;4.27;;;;;;;;;;5024416;28;20961;-73
2023/01/17 06:31:39;;;;;;;6.30;4.13;;;;;;;;;;5021524;28;20224;-72
2023/01/17 06:34:05;;;;;;;5.75;4.10;;;;;;;;;;5023657;28;20420;-72
2023/01/17 06:36:32;;;;;;;6.50;4.23;;;;;;;;;;5019001;28;20186;-72
2023/01/17 06:38:58;;;;;;;5.60;4.10;;;;;;;;;;5024710;28;20183;-72
2023/01/17 06:41:25;;;;;;;4.67;3.30;;;;;;;;;;5019353;28;20572;-73
2023/01/17 06:43:54;;;;;;;5.63;3.93;;;;;;;;;;5018851;28;20275;-76
2023/01/17 06:46:20;;;;;;;5.67;4.13;;;;;;;;;;5027389;28;20182;-73
2023/01/17 06:48:47;;;;;;;6.03;3.83;;;;;;;;;;5024095;28;20195;-71
2023/01/17 06:51:14;;;;;;;5.55;4.07;;;;;;;;;;5020003;28;20431;-73
2023/01/17 06:53:40;;;;;;;4.60;3.50;;;;;;;;;;5022514;28;20258;-73
2023/01/17 06:56:06;;;;;;;6.23;3.80;;;;;;;;;;5024956;28;20886;-74
2023/01/17 06:58:32;;;;;;;5.50;3.63;;;;;;;;;;5018009;28;20182;-76
2023/01/17 07:00:58;;;;;;;6.73;4.10;;;;;;;;;;5023441;28;20670;-74
2023/01/17 07:03:26;;;;;;;4.80;3.57;;;;;;;;;;5021109;28;20190;-74
2023/01/17 07:05:52;;;;;;;5.67;3.87;;;;;;;;;;5021310;28;20984;-75
2023/01/17 07:08:19;;;;;;;4.77;3.37;;;;;;;;;;5019657;28;20186;-73
2023/01/17 07:10:48;;;;;;;6.97;4.13;;;;;;;;;;5020204;28;20184;-74
2023/01/17 07:13:14;;;;;;;7.87;4.20;;;;;;;;;;5018023;28;20226;-73
2023/01/17 07:15:41;;;;;;;6.37;3.90;;;;;;;;;;5008298;28;20226;-73
2023/01/17 07:18:07;;;;;;;6.53;4.37;;;;;;;;;;5026503;28;20187;-73
2023/01/17 07:20:33;;;;;;;7.43;4.10;;;;;;;;;;5027300;28;20289;-73
2023/01/17 07:22:59;;;;;;;4.83;3.40;;;;;;;;;;5018557;28;20194;-74
2023/01/17 07:25:26;;;;;;;4.83;3.50;;;;;;;;;;5017414;28;20175;-74
2023/01/17 07:27:53;;;;;;;5.30;3.80;;;;;;;;;;5019153;28;20176;-74
2023/01/17 07:30:20;;;;;;;5.27;3.77;;;;;;;;;;5018042;28;20245;-74
2023/01/17 07:32:51;;;;;;;7.20;4.00;;;;;;;;;;5003699;28;20659;-74
2023/01/17 07:35:17;;;;;;;4.83;4.13;;;;;;;;;;5028444;28;20273;-72
2023/01/17 07:37:48;;;;;;;5.93;4.47;;;;;;;;;;5020744;28;20264;-73
2023/01/17 07:40:16;;;;;;;8.20;5.10;;;;;;;;;;5023328;28;20552;-72
2023/01/17 07:42:42;;;;;;;8.87;5.20;;;;;;;;;;5018463;28;20195;-76
2023/01/17 07:45:09;;;;;;;11.23;5.80;;;;;;;;;;5029987;28;20269;-74
2023/01/17 07:47:35;;;;;;;9.17;5.60;;;;;;;;;;5028724;28;20195;-73
2023/01/17 07:50:01;;;;;;;8.43;5.53;;;;;;;;;;5030903;28;20179;-73
2023/01/17 07:52:28;;;;;;;9.13;5.53;;;;;;;;;;5030167;28;20202;-74
2023/01/17 07:54:54;;;;;;;7.23;4.80;;;;;;;;;;5026037;28;21219;-73
2023/01/17 07:57:20;;;;;;;7.37;4.97;;;;;;;;;;5019716;28;20189;-73
2023/01/17 07:59:46;;;;;;;6.63;4.50;;;;;;;;;;5030566;28;20343;-73
2023/01/17 08:02:17;;;;;;;6.70;4.67;;;;;;;;;;5032137;28;20210;-73
2023/01/17 08:04:43;;;;;;;6.10;4.50;;;;;;;;;;5024997;28;20182;-72
2023/01/17 08:07:09;;;;;;;7.40;4.77;;;;;;;;;;5033265;28;20708;-72
2023/01/17 08:09:35;;;;;;;8.87;5.33;;;;;;;;;;5031615;28;20240;-73
2023/01/17 08:12:01;;;;;;;8.37;4.80;;;;;;;;;;5017248;28;20191;-73
2023/01/17 08:14:28;;;;;;;8.80;5.30;;;;;;;;;;5026389;28;20249;-75
2023/01/17 08:16:54;;;;;;;7.23;5.53;;;;;;;;;;5019193;28;20179;-75
2023/01/17 08:19:21;;;;;;;10.90;6.57;;;;;;;;;;5014088;28;20164;-73
2023/01/17 08:21:47;;;;;;;10.50;6.17;;;;;;;;;;5021614;28;20250;-73
2023/01/17 08:24:14;;;;;;;9.07;5.83;;;;;;;;;;5034063;28;20221;-73
2023/01/17 08:26:40;;;;;;;8.93;5.60;;;;;;;;;;5016208;28;20202;-73
2023/01/17 08:29:06;;;;;;;9.90;5.70;;;;;;;;;;5032123;28;20179;-75
2023/01/17 08:31:33;;;;;;;7.20;5.50;;;;;;;;;;5023178;28;20553;-75
2023/01/17 08:33:59;;;;;;;8.57;5.73;;;;;;;;;;5024972;28;20288;-74
2023/01/17 08:36:27;;;;;;;7.53;5.40;;;;;;;;;;5026746;28;20182;-73
2023/01/17 08:38:53;;;;;;;9.37;5.80;;;;;;;;;;5014062;28;20671;-73
2023/01/17 08:41:20;;;;;;;8.90;5.20;;;;;;;;;;5013259;28;20550;-73
2023/01/17 08:43:47;;;;;;;8.60;5.70;;;;;;;;;;5030255;28;20210;-73
2023/01/17 08:46:13;;;;;;;10.43;6.50;;;;;;;;;;5026783;28;20175;-73
2023/01/17 08:48:40;;;;;;;10.10;5.87;;;;;;;;;;5025536;28;20178;-73
2023/01/17 08:51:06;;;;;;;9.37;6.33;;;;;;;;;;5020768;28;20174;-72
2023/01/17 08:53:32;;;;;;;11.03;5.90;;;;;;;;;;4995670;28;20265;-73
2023/01/17 08:55:59;;;;;;;11.27;5.90;;;;;;;;;;5028347;28;20278;-75
2023/01/17 08:58:26;;;;;;;8.17;5.73;;;;;;;;;;5017686;28;20244;-75
2023/01/17 09:00:52;;;;;;;8.67;5.50;;;;;;;;;;5022185;28;20360;-75
2023/01/17 09:03:18;;;;;;;9.20;5.70;;;;;;;;;;5024712;28;20206;-74
2023/01/17 09:05:44;;;;;;;8.20;5.50;;;;;;;;;;5019164;28;20179;-73
2023/01/17 09:08:11;;;;;;;7.00;4.97;;;;;;;;;;5018267;28;20174;-73
2023/01/17 09:10:37;;;;;;;8.70;5.23;;;;;;;;;;5023293;28;20183;-73
2023/01/17 09:13:05;;;;;;;7.13;5.17;;;;;;;;;;5020300;28;20920;-73
2023/01/17 09:15:32;;;;;;;7.57;5.23;;;;;;;;;;5020946;28;20593;-73
2023/01/17 09:18:00;;;;;;;8.83;5.43;;;;;;;;;;5029081;28;20749;-72
2023/01/17 09:20:28;;;;;;;7.40;5.13;;;;;;;;;;5020654;28;20211;-73
2023/01/17 09:22:55;;;;;;;7.17;5.07;;;;;;;;;;5009591;28;20195;-72
2023/01/17 09:25:22;;;;;;;6.33;4.70;;;;;;;;;;5025061;28;20248;-72
2023/01/17 09:27:48;;;;;;;7.23;4.63;;;;;;;;;;5013455;28;20174;-73
2023/01/17 09:30:14;;;;;;;6.87;5.00;;;;;;;;;;5028113;28;20217;-73
2023/01/17 09:32:40;;;;;;;8.43;5.47;;;;;;;;;;5019154;28;20605;-74
2023/01/17 09:35:07;;;;;;;8.53;4.63;;;;;;;;;;5020274;28;20713;-73
2023/01/17 09:37:33;;;;;;;6.37;4.60;;;;;;;;;;5020707;28;20182;-73
2023/01/17 09:39:59;;;;;;;6.27;4.37;;;;;;;;;;5016674;28;20741;-75
2023/01/17 09:42:38;;;;;;;6.97;4.50;;;;;;;;;;5020744;28;20203;-73
2023/01/17 09:45:04;;;;;;;6.23;4.20;;;;;;;;;;5019698;28;20189;-72
2023/01/17 09:47:40;;;;;;;6.83;4.37;;;;;;;;;;5015862;28;20843;-74
2023/01/17 09:50:29;;;;;;;7.33;4.43;;;;;;;;;;5021256;28;20683;-72
2023/01/17 09:53:00;;;;;;;6.47;3.67;;;;;;;;;;5013803;28;20616;-72
2023/01/17 09:55:49;;;;;;;6.93;3.90;;;;;;;;;;5015465;28;20191;-73
2023/01/17 09:58:19;;;;;;;6.07;3.70;;;;;;;;;;5014063;28;20826;-73
2023/01/17 10:00:52;;;;;;;7.30;3.63;;;;;;;;;;5000708;28;20298;-73
2023/01/17 10:03:25;;;;;;;5.67;3.40;;;;;;;;;;5016719;28;20203;-73
2023/01/17 10:05:57;;;;;;;3.77;2.97;;;;;;;;;;5015047;28;20191;-73
2023/01/17 10:08:32;;;;;;;5.33;3.10;;;;;;;;;;5025494;28;20563;-74
2023/01/17 10:11:09;;;;;;;4.70;3.30;;;;;;;;;;5015309;28;20194;-73
2023/01/17 10:13:47;;;;;;;5.93;3.80;;;;;;;;;;5003721;28;20682;-73
2023/01/17 10:16:16;;;;;;;4.57;3.27;;;;;;;;;;5024645;28;20201;-74
2023/01/17 10:18:54;;;;;;;5.57;3.57;;;;;;;;;;5028250;28;20183;-72
2023/01/17 10:21:40;;;;;;;4.63;2.90;;;;;;;;;;5018696;28;20215;-72
2023/01/17 10:24:15;;;;;;;6.17;3.03;;;;;;;;;;5022510;28;20202;-72
2023/01/17 10:26:41;;;;;;;4.13;2.93;;;;;;;;;;5011845;28;20179;-73
2023/01/17 10:29:12;;;;;;;4.07;3.10;;;;;;;;;;5018368;28;20210;-72
2023/01/17 10:31:42;;;;;;;4.90;2.80;;;;;;;;;;5021153;28;20182;-74
2023/01/17 10:34:14;;;;;;;5.03;3.27;;;;;;;;;;4999471;28;20214;-73
2023/01/17 10:36:44;;;;;;;5.63;3.20;;;;;;;;;;5002404;28;20191;-73
2023/01/17 10:39:22;;;;;;;5.80;3.27;;;;;;;;;;5005873;28;20275;-72
2023/01/17 10:41:57;;;;;;;6.40;3.50;;;;;;;;;;5021759;28;20769;-72
2023/01/17 10:44:42;;;;;;;7.27;3.73;;;;;;;;;;5026453;28;20345;-73
2023/01/17 10:47:12;;;;;;;6.00;4.33;;;;;;;;;;5018270;28;20269;-72
2023/01/17 10:49:39;;;;;;;9.00;5.80;;;;;;;;;;5016434;28;20167;-72
2023/01/17 10:52:08;;;;;;;6.83;4.23;;;;;;;;;;5017581;28;20179;-73
2023/01/17 10:54:57;;;;;;;8.03;4.40;;;;;;;;;;5017395;28;20670;-72
2023/01/17 10:57:25;;;;;;;6.80;5.40;;;;;;;;;;5013992;28;20183;-73
2023/01/17 10:59:52;;;;;;;5.27;4.50;;;;;;;;;;5016693;28;20674;-73
2023/01/17 11:02:22;;;;;;;5.80;3.77;;;;;;;;;;5022044;28;20241;-72
2023/01/17 11:04:53;;;;;;;6.57;4.10;;;;;;;;;;5022582;28;20239;-72
2023/01/17 11:07:21;;;;;;;5.63;3.63;;;;;;;;;;5015632;28;20188;-72
2023/01/17 11:09:48;;;;;;;6.43;3.90;;;;;;;;;;5012492;28;20707;-72
2023/01/17 11:12:36;;;;;;;5.67;3.60;;;;;;;;;;5017279;28;20210;-72
2023/01/17 11:15:08;;;;;;;5.60;3.10;;;;;;;;;;5011817;28;20269;-73
2023/01/17 11:17:36;;;;;;;3.33;2.90;;;;;;;;;;5020063;28;20182;-72
2023/01/17 11:20:11;;;;;;;4.17;2.60;;;;;;;;;;5018037;28;20729;-75
2023/01/17 11:22:38;;;;;;;8.90;5.83;;;;;;;;;;5026573;28;20237;-75
2023/01/17 11:25:06;;;;;;;8.57;4.53;;;;;;;;;;5021358;28;20209;-75
2023/01/17 11:27:33;;;;;;;9.80;4.97;;;;;;;;;;5017323;28;20184;-75
2023/01/17 11:30:14;;;;;;;6.40;4.30;;;;;;;;;;5020195;28;20179;-75
2023/01/17 11:32:51;;;;;;;11.17;5.17;;;;;;;;;;5015935;28;20214;-75
2023/01/17 11:35:20;;;;;;;6.87;4.00;;;;;;;;;;5015162;28;20187;-75
2023/01/17 11:37:50;;;;;;;4.93;2.63;;;;;;;;;;5039968;28;20892;-74
2023/01/17 11:40:30;;;;;;;7.80;4.10;;;;;;;;;;5013709;28;20213;-74
2023/01/17 11:43:13;;;;;;;6.03;4.57;;;;;;;;;;5017907;28;20626;-74
2023/01/17 11:45:39;;;;;;;5.07;3.00;;;;;;;;;;5024213;28;20182;-76
2023/01/17 11:48:11;;;;;;;5.90;3.57;;;;;;;;;;5024256;28;20194;-75
2023/01/17 11:50:43;;;;;;;6.53;3.60;;;;;;;;;;5022421;28;20237;-75
2023/01/17 11:53:29;;;;;;;6.30;4.30;;;;;;;;;;5028107;28;20751;-75
2023/01/17 11:55:57;;;;;;;7.93;6.87;;;;;;;;;;5021168;28;20851;-75
2023/01/17 11:58:24;;;;;;;5.50;3.80;;;;;;;;;;5021784;28;20901;-75
2023/01/17 12:00:57;;;;;;;3.83;2.87;;;;;;;;;;5021655;28;20253;-74
2023/01/17 12:03:30;;;;;;;6.23;2.97;;;;;;;;;;5028005;28;20321;-75
2023/01/17 12:06:28;;;;;;;5.50;3.80;;;;;;;;;;5024195;28;20186;-75
2023/01/17 12:08:54;;;;;;;5.40;3.87;;;;;;;;;;5004454;28;20202;-75
2023/01/17 12:11:26;;;;;;;5.30;2.70;;;;;;;;;;5014415;28;20179;-75
2023/01/17 12:14:09;;;;;;;4.23;2.40;;;;;;;;;;5017078;28;20230;-76
2023/01/17 12:16:54;;;;;;;4.03;2.20;;;;;;;;;;5025137;28;20224;-75
2023/01/17 12:19:33;;;;;;;3.23;2.00;;;;;;;;;;5019853;28;20175;-75
2023/01/17 12:22:18;;;;;;;3.30;2.00;;;;;;;;;;5019701;28;20186;-74
2023/01/17 12:24:57;;;;;;;3.87;2.37;;;;;;;;;;5016284;28;20222;-75
2023/01/17 12:27:35;;;;;;;6.20;2.23;;;;;;;;;;5010203;28;20186;-75
2023/01/17 12:30:01;;;;;;;4.63;2.40;;;;;;;;;;5010844;28;20659;-75
2023/01/17 12:32:35;;;;;;;3.60;2.20;;;;;;;;;;5029543;28;20206;-75
2023/01/17 12:35:24;;;;;;;3.83;2.00;;;;;;;;;;5029824;28;20269;-74
2023/01/17 12:37:53;;;;;;;2.77;2.00;;;;;;;;;;5024697;28;20190;-74
2023/01/17 12:40:26;;;;;;;3.70;1.70;;;;;;;;;;5027368;28;20585;-75
2023/01/17 12:42:56;;;;;;;2.97;2.10;;;;;;;;;;5024686;28;20270;-74
2023/01/17 12:45:27;;;;;;;4.87;2.00;;;;;;;;;;5021443;28;20179;-75
2023/01/17 12:47:58;;;;;;;4.03;2.27;;;;;;;;;;5022300;28;20178;-75
2023/01/17 12:50:33;;;;;;;4.50;2.40;;;;;;;;;;5023139;28;20661;-74
2023/01/17 12:53:11;;;;;;;3.73;1.80;;;;;;;;;;5023637;28;20326;-75
2023/01/17 12:55:37;;;;;;;3.70;1.83;;;;;;;;;;5023712;28;20233;-75
2023/01/17 12:58:05;;;;;;;3.83;2.00;;;;;;;;;;4999580;28;20187;-75
2023/01/17 13:00:35;;;;;;;4.73;2.40;;;;;;;;;;5025275;28;20195;-75
2023/01/17 13:03:22;;;;;;;4.60;2.23;;;;;;;;;;5022090;28;20210;-75
2023/01/17 13:05:50;;;;;;;3.07;2.03;;;;;;;;;;5023430;28;20696;-74
2023/01/17 13:08:40;;;;;;;3.53;1.80;;;;;;;;;;5020967;28;20186;-74
2023/01/17 13:11:09;;;;;;;2.97;1.90;;;;;;;;;;5027723;28;20191;-74
2023/01/17 13:13:35;;;;;;;4.87;2.30;;;;;;;;;;5017668;28;20818;-74
2023/01/17 13:16:04;;;;;;;5.20;2.20;;;;;;;;;;5026345;28;20195;-74
2023/01/17 13:18:32;;;;;;;4.17;2.10;;;;;;;;;;5019180;28;20245;-74
2023/01/17 13:21:07;;;;;;;4.40;2.10;;;;;;;;;;5025844;28;20726;-74
2023/01/17 13:24:00;;;;;;;3.27;1.90;;;;;;;;;;5026899;28;20341;-74
2023/01/17 13:26:45;;;;;;;3.63;2.20;;;;;;;;;;5009123;28;20183;-74
2023/01/17 13:29:30;;;;;;;3.47;1.80;;;;;;;;;;5010698;28;20175;-74
2023/01/17 13:32:03;;;;;;;4.93;2.20;;;;;;;;;;5022776;28;20191;-74
2023/01/17 13:34:48;;;;;;;2.87;2.17;;;;;;;;;;5028320;28;20781;-74
2023/01/17 13:37:23;;;;;;;3.93;2.23;;;;;;;;;;5027460;28;20854;-75
2023/01/17 13:39:52;;;;;;;3.87;2.43;;;;;;;;;;5028312;28;20228;-75
2023/01/17 13:42:34;;;;;;;3.43;2.20;;;;;;;;;;5027869;28;20209;-78
2023/01/17 13:45:06;;;;;;;3.47;2.50;;;;;;;;;;5029610;28;20182;-77
2023/01/17 13:47:36;;;;;;;2.27;1.80;;;;;;;;;;5026005;28;20179;-75
2023/01/17 13:50:02;;;;;;;4.47;2.33;;;;;;;;;;5028638;28;20213;-75
2023/01/17 13:52:30;;;;;;;5.37;2.17;;;;;;;;;;5029108;28;20203;-75
2023/01/17 13:54:57;;;;;;;4.67;2.13;;;;;;;;;;5025644;28;20202;-75
2023/01/17 13:57:31;;;;;;;2.73;1.77;;;;;;;;;;5020516;28;20198;-76
2023/01/17 13:59:58;;;;;;;3.80;2.10;;;;;;;;;;5027791;28;20242;-76
2023/01/17 14:02:34;;;;;;;3.90;1.80;;;;;;;;;;5021067;28;20285;-75
2023/01/17 14:05:22;;;;;;;4.03;2.00;;;;;;;;;;5017839;28;20178;-75
2023/01/17 14:07:54;;;;;;;2.93;1.50;;;;;;;;;;5027553;28;20175;-75
2023/01/17 14:10:33;;;;;;;3.73;2.00;;;;;;;;;;5016031;28;20187;-75
2023/01/17 14:13:00;;;;;;;3.90;1.67;;;;;;;;;;5013956;28;20228;-76
2023/01/17 14:15:27;;;;;;;3.23;1.90;;;;;;;;;;5024993;28;20187;-76
2023/01/17 14:17:58;;;;;;;3.70;1.83;;;;;;;;;;5026964;28;20274;-76
2023/01/17 14:20:27;;;;;;;3.47;1.73;;;;;;;;;;5028271;28;20206;-78
2023/01/17 14:23:01;;;;;;;2.67;1.50;;;;;;;;;;5010850;28;20688;-78
2023/01/17 14:25:28;;;;;;;3.90;1.80;;;;;;;;;;5014567;28;20178;-76
2023/01/17 14:27:57;;;;;;;2.50;1.50;;;;;;;;;;5014206;28;20654;-76
2023/01/17 14:30:28;;;;;;;2.23;1.40;;;;;;;;;;5016746;28;20603;-75
2023/01/17 14:32:57;;;;;;;3.23;1.97;;;;;;;;;;5013276;28;20199;-76
2023/01/17 14:35:26;;;;;;;4.67;3.10;;;;;;;;;;5013102;28;20190;-76
2023/01/17 14:37:53;;;;;;;5.00;2.13;;;;;;;;;;5017181;28;20179;-76
2023/01/17 14:40:21;;;;;;;3.17;1.80;;;;;;;;;;5019748;28;20217;-77
2023/01/17 14:42:47;;;;;;;2.53;2.10;;;;;;;;;;5016981;28;20289;-76
2023/01/17 14:45:17;;;;;;;3.10;1.93;;;;;;;;;;5011830;28;20183;-79
2023/01/17 14:47:44;;;;;;;3.40;1.90;;;;;;;;;;5004020;28;20174;-75
2023/01/17 14:50:12;;;;;;;2.93;2.00;;;;;;;;;;5014640;28;20736;-76
2023/01/17 14:52:38;;;;;;;4.77;2.20;;;;;;;;;;5016091;28;20225;-76
2023/01/17 14:55:14;;;;;;;4.00;1.70;;;;;;;;;;5012341;28;20182;-76
2023/01/17 14:57:41;;;;;;;3.33;1.90;;;;;;;;;;5016696;28;20240;-76
2023/01/17 15:00:09;;;;;;;3.47;2.00;;;;;;;;;;5016319;28;20236;-77
2023/01/17 15:02:38;;;;;;;3.20;1.77;;;;;;;;;;5016290;28;20293;-76
2023/01/17 15:05:05;;;;;;;4.37;2.40;;;;;;;;;;5009446;28;20537;-76
2023/01/17 15:07:31;;;;;;;6.37;2.90;;;;;;;;;;5006654;28;20646;-77
2023/01/17 15:09:57;;;;;;;3.30;2.10;;;;;;;;;;5025927;28;20818;-76
2023/01/17 15:12:23;;;;;;;3.10;2.20;;;;;;;;;;5025568;28;20221;-76
2023/01/17 15:14:50;;;;;;;3.30;1.77;;;;;;;;;;5024956;28;20194;-76
2023/01/17 15:17:18;;;;;;;3.30;2.10;;;;;;;;;;5027619;28;20241;-76
2023/01/17 15:19:47;;;;;;;2.87;2.10;;;;;;;;;;5018594;28;20239;-74
2023/01/17 15:22:14;;;;;;;3.00;1.87;;;;;;;;;;5005965;28;20306;-74
2023/01/17 15:24:43;;;;;;;2.97;1.80;;;;;;;;;;5007344;28;20218;-76
2023/01/17 15:27:11;;;;;;;4.13;1.80;;;;;;;;;;5007049;28;20187;-76
2023/01/17 15:29:37;;;;;;;3.23;1.90;;;;;;;;;;5015493;28;20237;-76
2023/01/17 15:32:05;;;;;;;3.60;1.50;;;;;;;;;;5007537;28;20565;-76
2023/01/17 15:34:35;;;;;;;2.57;1.70;;;;;;;;;;5012761;28;20183;-76
2023/01/17 15:37:06;;;;;;;3.03;1.77;;;;;;;;;;5004123;28;20182;-76
2023/01/17 15:39:34;;;;;;;2.63;1.70;;;;;;;;;;5024805;28;20190;-76
2023/01/17 15:42:02;;;;;;;2.53;1.77;;;;;;;;;;5025541;28;20214;-76
2023/01/17 15:44:39;;;;;;;2.83;2.30;;;;;;;;;;5024638;28;20186;-77
2023/01/17 15:47:06;;;;;;;2.83;2.17;;;;;;;;;;5013152;28;20566;-76
2023/01/17 15:49:32;;;;;;;4.07;2.47;;;;;;;;;;5016238;28;20252;-76
2023/01/17 15:52:01;;;;;;;4.53;2.87;;;;;;;;;;5016901;28;20194;-76
2023/01/17 15:54:46;;;;;;;11.97;5.87;;;;;;;;;;5013524;28;20205;-76
2023/01/17 15:57:17;;;;;;;13.23;7.63;;;;;;;;;;5013610;28;20761;-77
2023/01/17 15:59:44;;;;;;;10.77;6.23;;;;;;;;;;5012896;28;20186;-76
2023/01/17 16:02:40;;;;;;;11.03;6.40;;;;;;;;;;5012037;28;20175;-76
2023/01/17 16:05:21;;;;;;;8.53;5.37;;;;;;;;;;4998496;28;20190;-76
2023/01/17 16:07:48;;;;;;;8.35;4.95;;;;;;;;;;5011067;28;20414;-76
2023/01/17 16:10:17;;;;;;;5.87;4.20;;;;;;;;;;5012147;28;20309;-76
2023/01/17 16:12:44;;;;;;;6.40;3.47;;;;;;;;;;5016498;28;20222;-76
2023/01/17 16:15:10;;;;;;;6.43;4.00;;;;;;;;;;5016984;28;20240;-76
2023/01/17 16:17:36;;;;;;;5.97;3.92;;;;;;;;;;5013220;28;20463;-79